Time;durP1;ratioP1;P1;durP2;ratioP2;P2;SDS_P1;SDS_P2;PMS_P1;PMS_P2;Temp;Humidity;BMP_temperature;BMP_pressure;BME280_temperature;BME280_humidity;BME280_pressure;Samples;Min_cycle;Max_cycle;Signal;HPM_P1;HPM_P2
2021/06/09 00:01:41;;;;;;;;;;;14.50;99.90;;;;;;5030834;28;19909;-53
2021/06/09 00:04:07;;;;;;;;;;;14.50;99.90;;;;;;5030642;28;19978;-54
2021/06/09 00:06:33;;;;;;;;;;;14.50;99.90;;;;;;5030850;28;20011;-55
2021/06/09 00:08:59;;;;;;;;;;;14.40;99.90;;;;;;5029553;28;19910;-51
2021/06/09 00:11:24;;;;;;;;;;;14.40;99.90;;;;;;5030734;28;19921;-53
2021/06/09 00:13:50;;;;;;;;;;;14.30;99.90;;;;;;5030514;28;20162;-53
2021/06/09 00:16:17;;;;;;;;;;;14.30;99.90;;;;;;5030182;28;20299;-52
2021/06/09 00:18:42;;;;;;;;;;;14.20;99.90;;;;;;5030488;28;19913;-56
2021/06/09 00:21:08;;;;;;;;;;;14.20;99.90;;;;;;5030129;28;19925;-51
2021/06/09 00:23:34;;;;;;;;;;;14.10;99.90;;;;;;5025130;28;19909;-51
2021/06/09 00:26:02;;;;;;;;;;;14.10;99.90;;;;;;5029886;28;19909;-53
2021/06/09 00:28:28;;;;;;;;;;;14.00;99.90;;;;;;5030211;28;20446;-52
2021/06/09 00:30:54;;;;;;;;;;;14.00;99.90;;;;;;5030368;28;19909;-55
2021/06/09 00:33:20;;;;;;;;;;;14.00;99.90;;;;;;5030610;28;19909;-50
2021/06/09 00:35:45;;;;;;;;;;;14.00;99.90;;;;;;5030086;28;20386;-57
2021/06/09 00:38:11;;;;;;;;;;;14.00;99.90;;;;;;5030131;28;19917;-55
2021/06/09 00:40:37;;;;;;;;;;;13.90;99.90;;;;;;5030367;28;19913;-50
2021/06/09 00:43:13;;;;;;;;;;;13.90;99.90;;;;;;5030818;28;19932;-52
2021/06/09 00:45:40;;;;;;;;;;;13.80;99.90;;;;;;5026467;28;19920;-51
2021/06/09 00:48:06;;;;;;;;;;;13.80;99.90;;;;;;5027567;28;20002;-50
2021/06/09 00:50:32;;;;;;;;;;;13.70;99.90;;;;;;5029834;28;19957;-52
2021/06/09 00:55:42;;;;;;;;;;;13.60;99.90;;;;;;5032432;28;19916;-54
2021/06/09 00:58:08;;;;;;;;;;;13.60;99.90;;;;;;5028986;28;20014;-55
2021/06/09 01:00:34;;;;;;;;;;;13.60;99.90;;;;;;5027506;28;20334;-52
2021/06/09 01:02:59;;;;;;;;;;;13.50;99.90;;;;;;5027815;28;19984;-53
2021/06/09 01:05:25;;;;;;;;;;;13.50;99.90;;;;;;5028931;28;20485;-54
2021/06/09 01:07:50;;;;;;;;;;;13.50;99.90;;;;;;5030010;28;20441;-52
2021/06/09 01:10:16;;;;;;;;;;;13.50;99.90;;;;;;5028842;28;19910;-55
2021/06/09 01:12:41;;;;;;;;;;;13.40;99.90;;;;;;5030179;28;19971;-50
2021/06/09 01:15:07;;;;;;;;;;;13.40;99.90;;;;;;5029435;28;19909;-56
2021/06/09 01:17:33;;;;;;;;;;;13.40;99.90;;;;;;5029031;28;19913;-56
2021/06/09 01:19:58;;;;;;;;;;;13.40;99.90;;;;;;5027990;28;19913;-52
2021/06/09 01:22:24;;;;;;;;;;;13.30;99.90;;;;;;5029497;28;19962;-54
2021/06/09 01:24:50;;;;;;;;;;;13.30;99.90;;;;;;5029045;28;19916;-53
2021/06/09 01:27:19;;;;;;;;;;;13.30;99.90;;;;;;5029335;28;19917;-56
2021/06/09 01:29:44;;;;;;;;;;;13.30;99.90;;;;;;5029050;28;20581;-50
2021/06/09 01:32:10;;;;;;;;;;;13.20;99.90;;;;;;5029022;28;19905;-55
2021/06/09 01:34:35;;;;;;;;;;;13.20;99.90;;;;;;5027349;28;19910;-54
2021/06/09 01:37:01;;;;;;;;;;;13.10;99.90;;;;;;5028912;28;19970;-56
2021/06/09 01:39:26;;;;;;;;;;;13.10;99.90;;;;;;5020504;28;19913;-50
2021/06/09 01:41:52;;;;;;;;;;;13.10;99.90;;;;;;5013800;28;19915;-53
2021/06/09 01:44:17;;;;;;;;;;;13.10;99.90;;;;;;5013570;28;19925;-54
2021/06/09 01:46:43;;;;;;;;;;;13.10;99.90;;;;;;5011693;28;19909;-54
2021/06/09 01:49:09;;;;;;;;;;;13.00;99.90;;;;;;5020751;28;20005;-55
2021/06/09 01:51:35;;;;;;;;;;;13.00;99.90;;;;;;5028067;28;19920;-55
2021/06/09 01:54:01;;;;;;;;;;;13.00;99.90;;;;;;5028319;28;19909;-53
2021/06/09 01:56:27;;;;;;;;;;;13.00;99.90;;;;;;5028820;28;19913;-54
2021/06/09 01:58:52;;;;;;;;;;;12.90;99.90;;;;;;5027484;28;19909;-53
2021/06/09 02:01:19;;;;;;;;;;;12.90;99.90;;;;;;5028911;28;20004;-50
2021/06/09 02:03:44;;;;;;;;;;;12.90;99.90;;;;;;5028929;28;19913;-55
2021/06/09 02:06:10;;;;;;;;;;;12.90;99.90;;;;;;5028765;28;19909;-53
2021/06/09 02:08:36;;;;;;;;;;;12.90;99.90;;;;;;5028745;28;19917;-53
2021/06/09 02:11:01;;;;;;;;;;;12.90;99.90;;;;;;5029100;28;19971;-54
2021/06/09 02:13:27;;;;;;;;;;;12.90;99.90;;;;;;5029353;28;20338;-54
2021/06/09 02:15:56;;;;;;;;;;;12.80;99.90;;;;;;5028311;28;19913;-53
2021/06/09 02:18:25;;;;;;;;;;;12.80;99.90;;;;;;5021797;28;20004;-53
2021/06/09 02:20:52;;;;;;;;;;;12.80;99.90;;;;;;5028261;28;20390;-53
2021/06/09 02:23:22;;;;;;;;;;;12.80;99.90;;;;;;5028546;28;19909;-50
2021/06/09 02:25:49;;;;;;;;;;;12.80;99.90;;;;;;5028428;28;19909;-49
2021/06/09 02:28:14;;;;;;;;;;;12.80;99.90;;;;;;5028735;28;19996;-53
2021/06/09 02:30:41;;;;;;;;;;;12.80;99.90;;;;;;5028529;28;20004;-55
2021/06/09 02:33:06;;;;;;;;;;;12.70;99.90;;;;;;5028543;28;19910;-52
2021/06/09 02:35:39;;;;;;;;;;;12.70;99.90;;;;;;5028611;28;19913;-54
2021/06/09 02:38:04;;;;;;;;;;;12.70;99.90;;;;;;5026951;28;19914;-54
2021/06/09 02:40:30;;;;;;;;;;;12.70;99.90;;;;;;5028707;28;19920;-51
2021/06/09 02:42:56;;;;;;;;;;;12.70;99.90;;;;;;5027413;28;19910;-50
2021/06/09 02:45:21;;;;;;;;;;;12.60;99.90;;;;;;5028412;28;19967;-51
2021/06/09 02:47:48;;;;;;;;;;;12.70;99.90;;;;;;5027207;28;19915;-51
2021/06/09 02:50:15;;;;;;;;;;;12.60;99.90;;;;;;5024201;28;20291;-54
2021/06/09 02:52:56;;;;;;;;;;;12.60;99.90;;;;;;5028191;28;19913;-56
2021/06/09 02:55:29;;;;;;;;;;;12.60;99.90;;;;;;5024773;28;19909;-50
2021/06/09 02:57:57;;;;;;;;;;;12.50;99.90;;;;;;5028309;28;19921;-53
2021/06/09 03:00:28;;;;;;;;;;;12.50;99.90;;;;;;5028074;28;20003;-52
2021/06/09 03:03:09;;;;;;;;;;;12.50;99.90;;;;;;5028029;28;19943;-51
2021/06/09 03:05:54;;;;;;;;;;;12.50;99.90;;;;;;5027579;28;20451;-51
2021/06/09 03:08:26;;;;;;;;;;;12.50;99.90;;;;;;5019795;28;19909;-51
2021/06/09 03:11:09;;;;;;;;;;;12.50;99.90;;;;;;5028192;28;19940;-52
2021/06/09 03:16:29;;;;;;;;;;;12.40;99.90;;;;;;5020855;28;19932;-51
2021/06/09 03:18:59;;;;;;;;;;;12.40;99.90;;;;;;5026673;28;20339;-52
2021/06/09 03:21:29;;;;;;;;;;;12.40;99.90;;;;;;5027778;28;19950;-57
2021/06/09 03:24:10;;;;;;;;;;;12.30;99.90;;;;;;5069825;22;19972;-55
2021/06/09 03:26:42;;;;;;;;;;;12.30;99.90;;;;;;5042005;28;19982;-59
2021/06/09 03:29:17;;;;;;;;;;;12.30;99.90;;;;;;5048318;28;20016;-59
2021/06/09 03:31:45;;;;;;;;;;;12.30;99.90;;;;;;5042930;28;19913;-57
2021/06/09 03:34:12;;;;;;;;;;;12.40;99.90;;;;;;5032298;28;19915;-57
2021/06/09 03:36:39;;;;;;;;;;;12.40;99.90;;;;;;5031720;28;19917;-59
2021/06/09 03:39:06;;;;;;;;;;;12.40;99.90;;;;;;5031870;28;19909;-58
2021/06/09 03:41:35;;;;;;;;;;;12.40;99.90;;;;;;5031607;28;19910;-58
2021/06/09 03:44:03;;;;;;;;;;;12.40;99.90;;;;;;5046873;28;19913;-56
2021/06/09 03:46:28;;;;;;;;;;;12.40;99.90;;;;;;5031538;28;20007;-58
2021/06/09 03:48:55;;;;;;;;;;;12.40;99.90;;;;;;5032026;28;19978;-58
2021/06/09 03:51:23;;;;;;;;;;;12.40;99.90;;;;;;5031026;28;19932;-59
2021/06/09 03:53:49;;;;;;;;;;;12.40;99.90;;;;;;5031406;28;20536;-59
2021/06/09 03:56:14;;;;;;;;;;;12.40;99.90;;;;;;5031504;28;19959;-57
2021/06/09 03:58:41;;;;;;;;;;;12.50;99.90;;;;;;5031546;28;19955;-59
2021/06/09 04:01:07;;;;;;;;;;;12.50;99.90;;;;;;5031646;28;19917;-59
2021/06/09 04:03:34;;;;;;;;;;;12.50;99.90;;;;;;5038524;28;19909;-59
2021/06/09 04:06:01;;;;;;;;;;;12.50;99.90;;;;;;5031181;28;19913;-57
2021/06/09 04:08:27;;;;;;;;;;;12.60;99.90;;;;;;5031357;28;19920;-57
2021/06/09 04:10:54;;;;;;;;;;;12.60;99.90;;;;;;5031141;28;19996;-59
2021/06/09 04:13:20;;;;;;;;;;;12.60;99.90;;;;;;5031227;28;19959;-56
2021/06/09 04:15:46;;;;;;;;;;;12.60;99.90;;;;;;5030682;28;19909;-58
2021/06/09 04:18:13;;;;;;;;;;;12.60;99.90;;;;;;5030743;28;19968;-59
2021/06/09 04:20:40;;;;;;;;;;;12.70;99.90;;;;;;5029579;28;20031;-58
2021/06/09 04:23:06;;;;;;;;;;;12.70;99.90;;;;;;5029964;28;20000;-59
2021/06/09 04:25:31;;;;;;;;;;;12.80;99.90;;;;;;5022435;28;20012;-56
2021/06/09 04:27:57;;;;;;;;;;;12.80;99.90;;;;;;5021391;28;20002;-56
2021/06/09 04:30:23;;;;;;;;;;;12.90;99.90;;;;;;5020484;28;19955;-56
2021/06/09 04:32:53;;;;;;;;;;;12.90;99.90;;;;;;5016655;28;20348;-58
2021/06/09 04:35:23;;;;;;;;;;;12.90;99.90;;;;;;5029948;28;19916;-58
2021/06/09 04:37:49;;;;;;;;;;;13.00;99.90;;;;;;5032392;28;19967;-55
2021/06/09 04:40:20;;;;;;;;;;;13.00;99.90;;;;;;5030511;28;19913;-56
2021/06/09 04:42:46;;;;;;;;;;;13.10;99.90;;;;;;5030243;28;20421;-56
2021/06/09 04:45:12;;;;;;;;;;;13.10;99.90;;;;;;5044049;28;19909;-58
2021/06/09 04:47:38;;;;;;;;;;;13.20;99.90;;;;;;5029761;28;19935;-55
2021/06/09 04:50:04;;;;;;;;;;;13.20;99.90;;;;;;5029425;28;19920;-58
2021/06/09 04:52:29;;;;;;;;;;;13.30;99.90;;;;;;5030060;28;20169;-56
2021/06/09 04:54:55;;;;;;;;;;;13.30;99.90;;;;;;5029669;28;19952;-58
2021/06/09 04:57:20;;;;;;;;;;;13.40;99.90;;;;;;5030067;28;20391;-56
2021/06/09 04:59:46;;;;;;;;;;;13.50;99.90;;;;;;5029826;28;19952;-58
2021/06/09 05:02:11;;;;;;;;;;;13.60;99.90;;;;;;5029811;28;19909;-56
2021/06/09 05:04:37;;;;;;;;;;;13.60;99.90;;;;;;5029498;28;19913;-56
2021/06/09 05:07:02;;;;;;;;;;;13.70;99.90;;;;;;5029972;28;20477;-53
2021/06/09 05:09:29;;;;;;;;;;;13.70;99.90;;;;;;5029911;28;19911;-53
2021/06/09 05:12:02;;;;;;;;;;;13.80;99.90;;;;;;5028712;28;19963;-54
2021/06/09 05:14:32;;;;;;;;;;;13.90;99.90;;;;;;5018715;28;19931;-56
2021/06/09 05:16:58;;;;;;;;;;;14.00;99.90;;;;;;5027717;28;20332;-56
2021/06/09 05:19:26;;;;;;;;;;;14.10;99.90;;;;;;5028966;28;19967;-57
2021/06/09 05:21:54;;;;;;;;;;;14.20;99.90;;;;;;5028696;28;19956;-53
2021/06/09 05:24:24;;;;;;;;;;;14.30;99.90;;;;;;5029197;28;20391;-55
2021/06/09 05:26:50;;;;;;;;;;;14.50;99.90;;;;;;5029327;28;19910;-55
2021/06/09 05:29:16;;;;;;;;;;;14.60;99.90;;;;;;5029250;28;20422;-57
2021/06/09 05:31:42;;;;;;;;;;;14.70;99.90;;;;;;5029175;28;20584;-56
2021/06/09 05:34:09;;;;;;;;;;;14.90;99.90;;;;;;5029444;28;19928;-56
2021/06/09 05:36:35;;;;;;;;;;;15.00;99.90;;;;;;5028655;28;19913;-56
2021/06/09 05:39:01;;;;;;;;;;;15.20;99.90;;;;;;5029464;28;20383;-58
2021/06/09 05:41:26;;;;;;;;;;;15.40;99.90;;;;;;5029298;28;19909;-57
2021/06/09 05:43:52;;;;;;;;;;;15.60;99.90;;;;;;5029020;28;19909;-57
2021/06/09 05:46:18;;;;;;;;;;;15.80;99.90;;;;;;5028797;28;19920;-56
2021/06/09 05:48:44;;;;;;;;;;;16.00;99.90;;;;;;5029004;28;19928;-57
2021/06/09 05:51:11;;;;;;;;;;;16.30;99.90;;;;;;5028702;28;19921;-56
2021/06/09 05:53:37;;;;;;;;;;;16.40;99.90;;;;;;5029193;28;19992;-55
2021/06/09 05:56:02;;;;;;;;;;;16.80;99.90;;;;;;5028513;28;19952;-53
2021/06/09 05:58:28;;;;;;;;;;;17.00;99.90;;;;;;5028854;28;19913;-57
2021/06/09 06:00:55;;;;;;;;;;;17.20;99.90;;;;;;5044135;28;20008;-54
2021/06/09 06:03:21;;;;;;;;;;;17.50;99.90;;;;;;5028779;28;20012;-56
2021/06/09 06:05:49;;;;;;;;;;;17.70;99.90;;;;;;5028600;28;19913;-57
2021/06/09 06:08:15;;;;;;;;;;;18.00;99.90;;;;;;5029183;28;20180;-55
2021/06/09 06:10:40;;;;;;;;;;;18.20;99.90;;;;;;5027943;28;19952;-52
2021/06/09 06:13:07;;;;;;;;;;;18.40;99.90;;;;;;5028805;28;19910;-57
2021/06/09 06:15:33;;;;;;;;;;;18.70;99.90;;;;;;5028848;28;19909;-54
2021/06/09 06:17:58;;;;;;;;;;;18.90;99.90;;;;;;5028743;28;19913;-57
2021/06/09 06:20:24;;;;;;;;;;;19.10;99.90;;;;;;5028713;28;19916;-58
2021/06/09 06:22:50;;;;;;;;;;;19.40;99.90;;;;;;5028038;28;19961;-56
2021/06/09 06:25:17;;;;;;;;;;;19.50;99.90;;;;;;5028396;28;19909;-57
2021/06/09 06:27:47;;;;;;;;;;;19.70;99.90;;;;;;5028708;28;20532;-54
2021/06/09 06:30:16;;;;;;;;;;;20.00;99.90;;;;;;5028964;28;19909;-53
2021/06/09 06:32:42;;;;;;;;;;;20.20;99.90;;;;;;5028583;28;19916;-57
2021/06/09 06:35:12;;;;;;;;;;;20.40;99.90;;;;;;5028278;28;19917;-56
2021/06/09 06:37:37;;;;;;;;;;;20.60;99.90;;;;;;5026254;28;19921;-56
2021/06/09 06:40:04;;;;;;;;;;;20.70;99.90;;;;;;5028492;28;19909;-56
2021/06/09 06:42:29;;;;;;;;;;;20.90;99.90;;;;;;5028549;28;19909;-55
2021/06/09 06:44:55;;;;;;;;;;;21.10;99.90;;;;;;5026970;28;19916;-55
2021/06/09 06:47:20;;;;;;;;;;;21.20;99.20;;;;;;5028857;28;19913;-56
2021/06/09 06:49:47;;;;;;;;;;;21.20;99.70;;;;;;5028408;28;19948;-55
2021/06/09 06:52:13;;;;;;;;;;;21.30;99.90;;;;;;5025664;28;20003;-54
2021/06/09 06:54:38;;;;;;;;;;;21.40;99.90;;;;;;5028019;28;20029;-55
2021/06/09 06:57:04;;;;;;;;;;;21.60;99.60;;;;;;5027831;28;20014;-55
2021/06/09 06:59:30;;;;;;;;;;;21.80;98.10;;;;;;5028233;28;19910;-57
2021/06/09 07:01:56;;;;;;;;;;;22.00;97.00;;;;;;5028287;28;19918;-58
2021/06/09 07:04:22;;;;;;;;;;;22.30;95.90;;;;;;5026646;28;19956;-58
2021/06/09 07:06:49;;;;;;;;;;;22.40;95.30;;;;;;5026805;28;19948;-56
2021/06/09 07:09:18;;;;;;;;;;;22.60;93.90;;;;;;5031131;28;19913;-57
2021/06/09 07:11:45;;;;;;;;;;;22.80;96.60;;;;;;5032449;28;19921;-53
2021/06/09 07:14:11;;;;;;;;;;;23.00;94.00;;;;;;5031506;28;19975;-55
2021/06/09 07:16:37;;;;;;;;;;;23.10;93.00;;;;;;5032056;28;19917;-51
2021/06/09 07:19:05;;;;;;;;;;;23.20;92.80;;;;;;5031745;28;19910;-51
2021/06/09 07:21:31;;;;;;;;;;;23.40;94.60;;;;;;5047734;28;20315;-52
2021/06/09 07:23:58;;;;;;;;;;;23.50;92.70;;;;;;5031702;28;19968;-64
2021/06/09 07:26:27;;;;;;;;;;;23.80;88.70;;;;;;5031111;28;19909;-63
2021/06/09 07:28:55;;;;;;;;;;;23.90;88.50;;;;;;5033069;28;19916;-64
2021/06/09 07:31:39;;;;;;;;;;;24.10;88.40;;;;;;5032079;28;20000;-64
2021/06/09 07:34:05;;;;;;;;;;;24.20;90.50;;;;;;5030224;28;20445;-64
2021/06/09 07:36:41;;;;;;;;;;;24.50;85.00;;;;;;5029975;28;20090;-64
2021/06/09 07:39:15;;;;;;;;;;;24.60;83.60;;;;;;5030095;28;19944;-64
2021/06/09 07:41:42;;;;;;;;;;;24.70;83.00;;;;;;5030119;28;19952;-65
2021/06/09 07:44:09;;;;;;;;;;;24.90;82.00;;;;;;5029952;28;19917;-65
2021/06/09 07:46:35;;;;;;;;;;;25.00;82.20;;;;;;5029322;28;19916;-64
2021/06/09 07:49:03;;;;;;;;;;;25.20;80.40;;;;;;5030889;28;20007;-65
2021/06/09 07:51:30;;;;;;;;;;;25.30;78.30;;;;;;5031157;28;19909;-64
2021/06/09 07:53:57;;;;;;;;;;;25.20;82.00;;;;;;5031173;28;19909;-64
2021/06/09 07:56:32;;;;;;;;;;;25.00;78.80;;;;;;5030977;28;19917;-65
2021/06/09 07:58:59;;;;;;;;;;;24.90;75.40;;;;;;5027342;28;19913;-64
2021/06/09 08:01:25;;;;;;;;;;;24.80;75.00;;;;;;5030934;28;19931;-65
2021/06/09 08:03:50;;;;;;;;;;;24.90;79.40;;;;;;5030703;28;20294;-65
2021/06/09 08:06:16;;;;;;;;;;;25.20;78.00;;;;;;5030819;28;20363;-65
2021/06/09 08:08:43;;;;;;;;;;;25.50;79.90;;;;;;5029751;28;19910;-64
2021/06/09 08:11:10;;;;;;;;;;;25.70;79.60;;;;;;5031181;28;19940;-64
2021/06/09 08:13:36;;;;;;;;;;;26.00;78.60;;;;;;5030748;28;20023;-64
2021/06/09 08:16:02;;;;;;;;;;;26.20;75.60;;;;;;5029462;28;20306;-65
2021/06/09 08:18:28;;;;;;;;;;;26.40;74.00;;;;;;5030192;28;19963;-64
2021/06/09 08:20:56;;;;;;;;;;;26.40;69.80;;;;;;5030665;28;19909;-64
2021/06/09 08:23:22;;;;;;;;;;;26.70;72.10;;;;;;5029269;28;19917;-64
2021/06/09 08:25:47;;;;;;;;;;;26.90;72.70;;;;;;5030645;28;20009;-64
2021/06/09 08:28:13;;;;;;;;;;;27.10;68.30;;;;;;5026782;28;19913;-65
2021/06/09 08:30:38;;;;;;;;;;;27.20;68.90;;;;;;5025789;28;20354;-64
2021/06/09 08:33:04;;;;;;;;;;;27.40;71.30;;;;;;5030153;28;19917;-64
2021/06/09 08:35:29;;;;;;;;;;;27.50;65.80;;;;;;5029833;28;19909;-65
2021/06/09 08:37:55;;;;;;;;;;;27.60;62.60;;;;;;5030216;28;19944;-64
2021/06/09 08:40:20;;;;;;;;;;;27.70;63.80;;;;;;5030173;28;20397;-64
2021/06/09 08:42:46;;;;;;;;;;;27.70;65.50;;;;;;5030217;28;19916;-64
2021/06/09 08:45:13;;;;;;;;;;;27.80;66.70;;;;;;5029783;28;20594;-64
2021/06/09 08:47:39;;;;;;;;;;;27.80;63.40;;;;;;5030346;28;19967;-64
2021/06/09 08:50:06;;;;;;;;;;;28.10;64.60;;;;;;5045273;28;19913;-64
2021/06/09 08:52:32;;;;;;;;;;;28.40;60.80;;;;;;5030182;28;19909;-64
2021/06/09 08:54:59;;;;;;;;;;;28.60;62.40;;;;;;5029878;28;20298;-66
2021/06/09 08:57:25;;;;;;;;;;;28.70;60.40;;;;;;5029829;28;19980;-65
2021/06/09 08:59:50;;;;;;;;;;;28.80;60.50;;;;;;5029703;28;19917;-64
2021/06/09 09:02:16;;;;;;;;;;;28.70;58.80;;;;;;5029520;28;19913;-64
2021/06/09 09:04:42;;;;;;;;;;;28.50;60.40;;;;;;5029012;28;19917;-65
2021/06/09 09:07:08;;;;;;;;;;;28.30;63.00;;;;;;5027508;28;19912;-65
2021/06/09 09:09:33;;;;;;;;;;;28.10;62.80;;;;;;5027736;28;20509;-64
2021/06/09 09:11:59;;;;;;;;;;;27.80;61.50;;;;;;5028847;28;20009;-65
2021/06/09 09:14:25;;;;;;;;;;;27.60;62.00;;;;;;5029123;28;19932;-64
2021/06/09 09:17:00;;;;;;;;;;;27.70;60.50;;;;;;5028824;28;20399;-65
2021/06/09 09:19:27;;;;;;;;;;;27.90;61.40;;;;;;5029220;28;19935;-62
2021/06/09 09:21:53;;;;;;;;;;;28.00;55.50;;;;;;5029714;28;19970;-64
2021/06/09 09:24:35;;;;;;;;;;;28.00;59.30;;;;;;5065669;22;20398;-50
2021/06/09 09:27:01;;;;;;;;;;;28.10;60.60;;;;;;5049149;28;19921;-56
2021/06/09 09:29:27;;;;;;;;;;;28.30;59.80;;;;;;5049484;28;19973;-49
2021/06/09 09:31:56;;;;;;;;;;;28.60;58.00;;;;;;5048388;28;19935;-52
2021/06/09 09:34:42;;;;;;;;;;;28.80;58.80;;;;;;5036688;28;20374;-56
2021/06/09 09:37:14;;;;;;;;;;;28.90;59.20;;;;;;5036107;28;19921;-52
2021/06/09 09:39:40;;;;;;;;;;;28.80;60.10;;;;;;5022205;28;20015;-52
2021/06/09 09:42:35;;;;;;;;;;;29.00;59.60;;;;;;5033556;28;19913;-57
2021/06/09 09:45:21;;;;;;;;;;;29.30;62.20;;;;;;5029288;28;19954;-50
2021/06/09 09:48:06;;;;;;;;;;;29.60;58.40;;;;;;5032921;28;19963;-50
2021/06/09 09:50:36;;;;;;;;;;;29.70;58.70;;;;;;5028971;28;19909;-50
2021/06/09 09:53:17;;;;;;;;;;;29.70;54.90;;;;;;5031077;28;19915;-51
2021/06/09 09:56:18;;;;;;;;;;;29.60;56.60;;;;;;5030727;28;19909;-52
2021/06/09 09:58:51;;;;;;;;;;;29.60;57.40;;;;;;5004936;28;19971;-49
2021/06/09 10:01:19;;;;;;;;;;;29.20;54.30;;;;;;5028484;28;19909;-57
2021/06/09 10:03:47;;;;;;;;;;;29.40;58.40;;;;;;5035700;28;19909;-53
2021/06/09 10:06:16;;;;;;;;;;;29.60;55.70;;;;;;5032638;28;19909;-55
2021/06/09 10:08:41;;;;;;;;;;;29.70;57.30;;;;;;5028932;28;19909;-56
2021/06/09 10:11:11;;;;;;;;;;;29.70;55.50;;;;;;5028678;28;20348;-57
2021/06/09 10:13:36;;;;;;;;;;;29.80;55.90;;;;;;5029019;28;19939;-51
2021/06/09 10:16:02;;;;;;;;;;;29.80;53.90;;;;;;5028638;28;19931;-49
2021/06/09 10:18:28;;;;;;;;;;;29.80;55.10;;;;;;5028866;28;19913;-51
2021/06/09 10:20:53;;;;;;;;;;;29.80;54.70;;;;;;5028642;28;19913;-53
2021/06/09 10:23:34;;;;;;;;;;;29.70;54.30;;;;;;5028230;28;20008;-57
2021/06/09 10:26:10;;;;;;;;;;;29.80;56.50;;;;;;5027917;28;19959;-52
2021/06/09 10:28:55;;;;;;;;;;;29.80;53.50;;;;;;5028311;28;19916;-54
2021/06/09 10:31:21;;;;;;;;;;;29.80;55.40;;;;;;5021422;28;19960;-56
2021/06/09 10:33:47;;;;;;;;;;;30.00;55.70;;;;;;5013292;28;20330;-54
2021/06/09 10:36:13;;;;;;;;;;;29.80;56.10;;;;;;5032009;28;20383;-52
2021/06/09 10:38:38;;;;;;;;;;;29.90;55.40;;;;;;5029804;28;20032;-52
2021/06/09 10:41:04;;;;;;;;;;;30.10;53.30;;;;;;5030817;28;20095;-51
2021/06/09 10:43:30;;;;;;;;;;;30.10;49.70;;;;;;5035836;28;19948;-55
2021/06/09 10:45:56;;;;;;;;;;;30.00;54.10;;;;;;5032364;28;19913;-54
2021/06/09 10:48:24;;;;;;;;;;;30.20;53.70;;;;;;5035057;28;20377;-56
2021/06/09 10:50:52;;;;;;;;;;;30.40;55.80;;;;;;5032748;28;20031;-47
2021/06/09 10:53:17;;;;;;;;;;;30.60;54.00;;;;;;5037115;28;19909;-52
2021/06/09 10:55:43;;;;;;;;;;;30.60;53.30;;;;;;5031497;28;19913;-50
2021/06/09 10:58:09;;;;;;;;;;;30.00;50.70;;;;;;5034678;28;19913;-53
2021/06/09 11:00:34;;;;;;;;;;;30.10;54.40;;;;;;5036808;28;19913;-55
2021/06/09 11:03:00;;;;;;;;;;;30.20;53.00;;;;;;5032855;28;20011;-51
2021/06/09 11:05:26;;;;;;;;;;;30.10;54.50;;;;;;5036442;28;19916;-49
2021/06/09 11:07:53;;;;;;;;;;;30.10;54.80;;;;;;5030570;28;20061;-48
2021/06/09 11:10:27;;;;;;;;;;;30.30;54.70;;;;;;5031990;28;19917;-52
2021/06/09 11:12:53;;;;;;;;;;;30.30;53.30;;;;;;5031787;28;19963;-56
2021/06/09 11:15:32;;;;;;;;;;;30.20;55.90;;;;;;5031936;28;20286;-53
2021/06/09 11:17:58;;;;;;;;;;;29.80;52.40;;;;;;5031504;28;20352;-52
2021/06/09 11:20:36;;;;;;;;;;;30.10;55.00;;;;;;5031972;28;20342;-51
2021/06/09 11:23:03;;;;;;;;;;;30.20;53.30;;;;;;5031405;28;19913;-59
2021/06/09 11:25:47;;;;;;;;;;;30.20;52.10;;;;;;5031587;28;19916;-57
2021/06/09 11:28:13;;;;;;;;;;;30.10;54.30;;;;;;5031308;28;20316;-53
2021/06/09 11:30:39;;;;;;;;;;;30.00;52.80;;;;;;5030444;28;19916;-47
2021/06/09 11:33:05;;;;;;;;;;;30.00;56.20;;;;;;5031060;28;20413;-54
2021/06/09 11:35:41;;;;;;;;;;;30.00;54.70;;;;;;5031401;28;20000;-50
2021/06/09 11:38:16;;;;;;;;;;;30.20;52.90;;;;;;5030815;28;19914;-54
2021/06/09 11:40:48;;;;;;;;;;;30.10;54.40;;;;;;5029986;28;19966;-57
2021/06/09 11:43:17;;;;;;;;;;;30.10;50.90;;;;;;5031297;28;19913;-54
2021/06/09 11:45:54;;;;;;;;;;;29.90;53.10;;;;;;5030936;28;19916;-52
2021/06/09 11:48:21;;;;;;;;;;;29.90;53.10;;;;;;5028530;28;19987;-52
2021/06/09 11:50:46;;;;;;;;;;;30.10;53.70;;;;;;5018876;28;19920;-54
2021/06/09 11:53:13;;;;;;;;;;;30.50;55.20;;;;;;5020644;28;20306;-57
2021/06/09 11:55:41;;;;;;;;;;;30.80;55.20;;;;;;5036186;28;19913;-56
2021/06/09 11:58:08;;;;;;;;;;;31.00;53.30;;;;;;5034165;28;20572;-52
2021/06/09 12:00:33;;;;;;;;;;;31.00;53.50;;;;;;5042443;28;19909;-58
2021/06/09 12:03:17;;;;;;;;;;;31.10;53.50;;;;;;5033249;28;20298;-54
2021/06/09 12:05:43;;;;;;;;;;;30.90;50.20;;;;;;5030430;28;20046;-54
2021/06/09 12:08:11;;;;;;;;;;;30.50;51.30;;;;;;5029602;28;19988;-50
2021/06/09 12:10:37;;;;;;;;;;;30.00;52.60;;;;;;5030560;28;19916;-55
2021/06/09 12:13:02;;;;;;;;;;;29.70;52.70;;;;;;5030569;28;19909;-53
2021/06/09 12:15:28;;;;;;;;;;;29.60;54.20;;;;;;5030488;28;19984;-54
2021/06/09 12:17:53;;;;;;;;;;;29.80;53.80;;;;;;5030249;28;19920;-53
2021/06/09 12:20:20;;;;;;;;;;;30.00;54.30;;;;;;5030696;28;20437;-55
2021/06/09 12:22:50;;;;;;;;;;;30.30;52.90;;;;;;5030764;28;19921;-54
2021/06/09 12:25:21;;;;;;;;;;;30.30;53.00;;;;;;5022623;28;19913;-56
2021/06/09 12:28:00;;;;;;;;;;;30.30;52.40;;;;;;5030273;28;19909;-54
2021/06/09 12:30:25;;;;;;;;;;;30.30;54.10;;;;;;5023706;28;19916;-59
2021/06/09 12:32:51;;;;;;;;;;;30.30;52.90;;;;;;5030229;28;19925;-50
2021/06/09 12:35:18;;;;;;;;;;;30.30;52.90;;;;;;5030119;28;19963;-50
2021/06/09 12:37:45;;;;;;;;;;;30.40;53.30;;;;;;5029809;28;19975;-58
2021/06/09 12:40:13;;;;;;;;;;;30.40;52.80;;;;;;5028383;28;19909;-55
2021/06/09 12:42:39;;;;;;;;;;;29.40;53.00;;;;;;5029941;28;19924;-53
2021/06/09 12:45:08;;;;;;;;;;;29.30;54.30;;;;;;5029611;28;20394;-55
2021/06/09 12:47:35;;;;;;;;;;;29.00;52.20;;;;;;5029059;28;19913;-57
2021/06/09 12:50:21;;;;;;;;;;;28.90;53.90;;;;;;5030466;28;19913;-55
2021/06/09 12:52:51;;;;;;;;;;;28.70;56.10;;;;;;5029888;28;20427;-50
2021/06/09 12:55:40;;;;;;;;;;;28.80;54.60;;;;;;5028137;28;19913;-53
2021/06/09 12:58:07;;;;;;;;;;;29.00;55.50;;;;;;5029217;28;20323;-51
2021/06/09 13:00:38;;;;;;;;;;;28.80;54.50;;;;;;5024112;28;19910;-51
2021/06/09 13:03:24;;;;;;;;;;;29.20;57.20;;;;;;5029606;28;20465;-53
2021/06/09 13:06:00;;;;;;;;;;;29.60;55.50;;;;;;5024884;28;19952;-53
2021/06/09 13:08:27;;;;;;;;;;;29.60;54.80;;;;;;5029842;28;20526;-54
2021/06/09 13:11:00;;;;;;;;;;;29.60;54.60;;;;;;5029459;28;20288;-50
2021/06/09 13:13:25;;;;;;;;;;;29.80;54.90;;;;;;5029445;28;19924;-53
2021/06/09 13:15:53;;;;;;;;;;;30.00;54.20;;;;;;5028861;28;20453;-51
2021/06/09 13:18:37;;;;;;;;;;;30.20;55.70;;;;;;5027907;28;20036;-57
2021/06/09 13:21:12;;;;;;;;;;;30.30;53.60;;;;;;5028076;28;19924;-51
2021/06/09 13:23:38;;;;;;;;;;;30.20;52.60;;;;;;5029165;28;19933;-52
2021/06/09 13:26:04;;;;;;;;;;;30.10;52.60;;;;;;5029065;28;19913;-52
2021/06/09 13:28:30;;;;;;;;;;;30.00;53.90;;;;;;5029376;28;20012;-51
2021/06/09 13:30:56;;;;;;;;;;;30.20;55.20;;;;;;5028892;28;19909;-54
2021/06/09 13:33:21;;;;;;;;;;;30.10;54.60;;;;;;5029126;28;20334;-53
2021/06/09 13:35:47;;;;;;;;;;;30.00;55.40;;;;;;5029006;28;19916;-53
2021/06/09 13:38:13;;;;;;;;;;;29.70;53.90;;;;;;5029014;28;19913;-53
2021/06/09 13:40:39;;;;;;;;;;;29.80;53.60;;;;;;5024165;28;20407;-55
2021/06/09 13:43:07;;;;;;;;;;;29.70;53.50;;;;;;5014409;28;19913;-53
2021/06/09 13:45:36;;;;;;;;;;;29.60;55.80;;;;;;5011569;28;19916;-54
2021/06/09 13:48:05;;;;;;;;;;;29.80;54.70;;;;;;5014231;28;20346;-55
2021/06/09 13:50:31;;;;;;;;;;;29.60;54.00;;;;;;5016063;28;19913;-54
2021/06/09 13:53:10;;;;;;;;;;;29.60;55.50;;;;;;5029199;28;19996;-53
2021/06/09 13:55:40;;;;;;;;;;;29.00;54.10;;;;;;5030234;28;20000;-56
2021/06/09 13:58:16;;;;;;;;;;;29.10;55.20;;;;;;5031206;28;19920;-57
2021/06/09 14:00:42;;;;;;;;;;;29.20;55.70;;;;;;5032061;28;20307;-58
2021/06/09 14:03:18;;;;;;;;;;;29.30;54.10;;;;;;5029361;28;19917;-55
2021/06/09 14:05:44;;;;;;;;;;;29.40;56.40;;;;;;5028895;28;19910;-57
2021/06/09 14:08:10;;;;;;;;;;;29.30;53.60;;;;;;5028559;28;19916;-51
2021/06/09 14:10:38;;;;;;;;;;;29.30;53.80;;;;;;5028704;28;20398;-59
2021/06/09 14:13:10;;;;;;;;;;;29.30;54.40;;;;;;5028597;28;20000;-53
2021/06/09 14:15:41;;;;;;;;;;;29.00;52.50;;;;;;5028740;28;19910;-54
2021/06/09 14:18:11;;;;;;;;;;;28.50;54.90;;;;;;5030108;28;19948;-56
2021/06/09 14:20:41;;;;;;;;;;;28.40;56.60;;;;;;5029120;28;19959;-55
2021/06/09 14:23:07;;;;;;;;;;;28.40;56.10;;;;;;5028196;28;19913;-54
2021/06/09 14:25:37;;;;;;;;;;;28.30;55.80;;;;;;5028856;28;19959;-51
2021/06/09 14:28:07;;;;;;;;;;;28.20;55.50;;;;;;5028787;28;19909;-54